Time;durP1;ratioP1;P1;durP2;ratioP2;P2;SDS_P1;SDS_P2;PMS_P1;PMS_P2;Temp;Humidity;BMP_temperature;BMP_pressure;BME280_temperature;BME280_humidity;BME280_pressure;Samples;Min_cycle;Max_cycle;Signal;HPM_P1;HPM_P2
2023/08/14 00:00:13;;;;;;;5.90;2.40;;;;;;;14.82;100.00;100784.84;679748;29;874;-65
2023/08/14 00:00:36;;;;;;;4.95;2.33;;;;;;;14.85;100.00;100785.69;678948;29;1242;-65
2023/08/14 00:00:57;;;;;;;5.32;2.40;;;;;;;14.86;100.00;100776.91;678983;28;4640;-65
2023/08/14 00:01:21;;;;;;;5.60;2.60;;;;;;;14.85;100.00;100781.28;679489;29;1654;-64
2023/08/14 00:01:44;;;;;;;5.10;2.45;;;;;;;14.82;100.00;100784.84;679020;29;1079;-64
2023/08/14 00:02:08;;;;;;;5.53;2.47;;;;;;;14.80;100.00;100783.16;678411;29;881;-64
2023/08/14 00:02:29;;;;;;;4.80;2.30;;;;;;;14.78;100.00;100784.97;678922;29;1370;-64
2023/08/14 00:02:50;;;;;;;5.25;2.40;;;;;;;14.78;100.00;100782.31;678750;29;1134;-65
2023/08/14 00:03:13;;;;;;;5.43;2.33;;;;;;;14.77;100.00;100783.22;681612;29;869;-64
2023/08/14 00:03:34;;;;;;;5.53;2.42;;;;;;;14.76;100.00;100786.72;679839;28;1028;-65
2023/08/14 00:04:00;;;;;;;8.13;2.70;;;;;;;14.74;100.00;100789.41;680051;28;4502;-65
2023/08/14 00:04:23;;;;;;;6.45;3.10;;;;;;;14.75;100.00;100785.03;680853;29;1544;-64
2023/08/14 00:04:54;;;;;;;6.43;2.38;;;;;;;14.75;100.00;100785.03;681775;28;985;-64
2023/08/14 00:05:19;;;;;;;9.13;2.78;;;;;;;14.74;100.00;100789.41;679088;29;891;-64
2023/08/14 00:05:42;;;;;;;9.85;2.80;;;;;;;14.75;100.00;100787.66;678435;29;1354;-65
2023/08/14 00:06:03;;;;;;;6.35;2.40;;;;;;;14.72;100.00;100793.00;678913;29;889;-65
2023/08/14 00:06:27;;;;;;;5.30;2.33;;;;;;;14.69;100.00;100785.13;678278;29;786;-64
2023/08/14 00:06:53;;;;;;;4.80;2.40;;;;;;;14.69;100.00;100780.75;678004;28;4363;-64
2023/08/14 00:07:25;;;;;;;7.50;2.95;;;;;;;14.67;100.00;100787.78;678466;28;1737;-64
2023/08/14 00:07:46;;;;;;;5.95;2.35;;;;;;;14.62;100.00;100785.25;677604;29;1290;-64
2023/08/14 00:08:09;;;;;;;4.40;2.30;;;;;;;14.66;100.00;100777.31;680197;29;1119;-64
2023/08/14 00:08:30;;;;;;;5.35;2.50;;;;;;;14.62;100.00;100780.00;679570;29;929;-64
2023/08/14 00:09:02;;;;;;;6.57;2.55;;;;;;;14.65;100.00;100784.34;680549;29;1229;-65
2023/08/14 00:09:23;;;;;;;6.13;2.95;;;;;;;14.66;100.00;100786.06;680842;29;929;-64
2023/08/14 00:09:43;;;;;;;5.15;2.45;;;;;;;14.66;100.00;100780.78;680086;28;4490;-64
2023/08/14 00:10:07;;;;;;;5.53;2.63;;;;;;;14.68;100.00;100786.91;681449;28;1038;-65
2023/08/14 00:10:28;;;;;;;5.10;2.45;;;;;;;14.71;100.00;100783.34;681211;29;1787;-64
2023/08/14 00:10:49;;;;;;;5.78;2.40;;;;;;;14.72;100.00;100785.09;678952;28;1169;-64
2023/08/14 00:11:10;;;;;;;6.10;2.47;;;;;;;14.72;100.00;100779.84;679505;29;838;-65
2023/08/14 00:11:31;;;;;;;5.60;2.70;;;;;;;14.72;100.00;100785.09;677516;29;1402;-65
2023/08/14 00:11:52;;;;;;;5.30;2.55;;;;;;;14.72;100.00;100785.09;678071;29;1164;-65
2023/08/14 00:12:15;;;;;;;6.20;2.50;;;;;;;14.72;100.00;100782.47;677647;29;1308;-65
2023/08/14 00:12:38;;;;;;;5.87;2.60;;;;;;;14.74;100.00;100783.28;678760;29;1132;-65
2023/08/14 00:12:59;;;;;;;6.75;2.47;;;;;;;14.73;100.00;100781.53;679175;28;4786;-64
2023/08/14 00:13:21;;;;;;;7.03;2.47;;;;;;;14.72;100.00;100778.06;678204;29;811;-65
2023/08/14 00:13:53;;;;;;;5.20;2.28;;;;;;;14.72;100.00;100787.72;678491;29;1097;-65
2023/08/14 00:14:17;;;;;;;8.63;2.70;;;;;;;14.69;100.00;100786.03;678194;29;1329;-64
2023/08/14 00:14:40;;;;;;;5.70;2.47;;;;;;;14.68;100.00;100786.06;678287;29;1356;-64
2023/08/14 00:15:01;;;;;;;5.38;2.35;;;;;;;14.66;100.00;100786.06;678490;29;862;-65
2023/08/14 00:15:22;;;;;;;5.10;2.67;;;;;;;14.62;100.00;100780.00;678768;29;1456;-65
2023/08/14 00:15:49;;;;;;;6.00;2.38;;;;;;;14.65;100.00;100789.59;677939;28;4516;-65
2023/08/14 00:16:12;;;;;;;5.40;2.60;;;;;;;14.67;100.00;100781.69;678609;29;3943;-65
2023/08/14 00:16:38;;;;;;;5.20;2.63;;;;;;;14.64;100.00;100778.19;678087;29;1026;-65
2023/08/14 00:16:59;;;;;;;5.00;2.50;;;;;;;14.65;100.00;100789.59;678951;29;1556;-64
2023/08/14 00:17:20;;;;;;;5.32;2.60;;;;;;;14.67;100.00;100786.94;678113;29;933;-64
2023/08/14 00:17:44;;;;;;;5.47;2.60;;;;;;;14.67;100.00;100794.84;678762;29;1261;-65
2023/08/14 00:18:05;;;;;;;6.30;2.53;;;;;;;14.68;100.00;100783.41;678380;29;1431;-65
2023/08/14 00:18:32;;;;;;;6.43;2.67;;;;;;;14.67;100.00;100782.53;678947;29;1456;-65
2023/08/14 00:18:53;;;;;;;5.38;2.70;;;;;;;14.66;100.00;100782.56;669064;29;4617;-64
2023/08/14 00:19:16;;;;;;;5.53;2.50;;;;;;;14.64;100.00;100788.72;678513;29;1186;-65
2023/08/14 00:19:46;;;;;;;6.32;2.55;;;;;;;14.61;100.00;100782.63;678409;29;1272;-64
2023/08/14 00:20:11;;;;;;;6.10;2.60;;;;;;;14.63;100.00;100784.38;679359;29;1335;-64
2023/08/14 00:20:32;;;;;;;6.50;2.47;;;;;;;14.62;100.00;100785.25;679731;29;976;-65
2023/08/14 00:20:52;;;;;;;6.90;2.50;;;;;;;14.64;100.00;100785.22;675732;29;1259;-64
2023/08/14 00:21:16;;;;;;;6.03;2.60;;;;;;;14.62;100.00;100785.25;676889;29;1335;-64
2023/08/14 00:21:40;;;;;;;5.90;2.40;;;;;;;14.62;100.00;100781.72;677103;29;1337;-64
2023/08/14 00:22:01;;;;;;;5.10;2.70;;;;;;;14.61;100.00;100786.13;677625;29;5109;-65
2023/08/14 00:22:21;;;;;;;5.13;2.63;;;;;;;14.62;100.00;100784.34;679017;29;775;-65
2023/08/14 00:22:42;;;;;;;4.73;2.30;;;;;;;14.60;100.00;100786.16;678731;29;1117;-64
2023/08/14 00:23:03;;;;;;;6.40;2.60;;;;;;;14.59;100.00;100785.31;679732;29;1369;-65
2023/08/14 00:23:27;;;;;;;7.25;2.60;;;;;;;14.62;100.00;100786.97;680450;29;1623;-64
2023/08/14 00:23:48;;;;;;;6.55;2.40;;;;;;;14.62;100.00;100780.00;679285;28;1299;-64
2023/08/14 00:24:12;;;;;;;4.47;2.20;;;;;;;14.62;100.00;100785.25;679256;29;854;-65
2023/08/14 00:24:33;;;;;;;4.28;2.30;;;;;;;14.64;100.00;100783.47;678237;29;1216;-65
2023/08/14 00:24:58;;;;;;;5.13;2.65;;;;;;;14.66;100.00;100780.78;677425;28;4654;-65
2023/08/14 00:25:22;;;;;;;6.25;2.53;;;;;;;14.66;100.00;100779.94;679683;29;1333;-65
2023/08/14 00:25:49;;;;;;;4.90;2.60;;;;;;;14.64;100.00;100779.97;674409;29;1812;-64
2023/08/14 00:26:14;;;;;;;6.13;2.50;;;;;;;14.61;100.00;100780.84;675626;29;1016;-64
2023/08/14 00:26:38;;;;;;;7.03;2.40;;;;;;;14.59;100.00;100773.88;675218;29;1521;-64
2023/08/14 00:27:05;;;;;;;5.13;2.70;;;;;;;14.57;100.00;100776.56;676364;29;1652;-65
2023/08/14 00:27:29;;;;;;;6.63;2.80;;;;;;;14.58;100.00;100772.16;676716;29;1309;-64
2023/08/14 00:27:50;;;;;;;5.38;2.47;;;;;;;14.58;100.00;100780.03;677852;29;4476;-64
2023/08/14 00:28:11;;;;;;;5.47;2.47;;;;;;;14.59;100.00;100772.16;677559;29;1812;-64
2023/08/14 00:28:38;;;;;;;5.05;2.33;;;;;;;14.57;100.00;100776.56;678784;29;1037;-65
2023/08/14 00:29:01;;;;;;;6.65;2.60;;;;;;;14.57;100.00;100781.81;676862;29;1584;-64
2023/08/14 00:29:22;;;;;;;6.25;2.38;;;;;;;14.58;100.00;100772.16;674072;29;1243;-65
2023/08/14 00:29:42;;;;;;;6.47;2.50;;;;;;;14.57;100.00;100773.94;674125;29;1263;-64
2023/08/14 00:30:04;;;;;;;6.78;2.90;;;;;;;14.58;100.00;100780.94;673261;29;1270;-65
2023/08/14 00:30:25;;;;;;;6.10;2.30;;;;;;;14.59;100.00;100777.41;674243;29;871;-64
2023/08/14 00:30:46;;;;;;;5.90;2.38;;;;;;;14.62;100.00;100780.00;673355;29;4504;-65
2023/08/14 00:31:12;;;;;;;7.00;2.45;;;;;;;14.62;100.00;100780.00;677854;29;874;-65
2023/08/14 00:31:32;;;;;;;4.38;2.45;;;;;;;14.62;100.00;100780.00;676780;29;1603;-65
2023/08/14 00:31:56;;;;;;;4.82;2.80;;;;;;;14.62;100.00;100779.09;678897;29;1033;-64
2023/08/14 00:32:22;;;;;;;4.97;2.33;;;;;;;14.59;100.00;100780.03;682136;29;858;-65
2023/08/14 00:32:45;;;;;;;7.88;2.60;;;;;;;14.59;100.00;100776.53;677939;29;1375;-64
2023/08/14 00:33:19;;;;;;;5.93;2.60;;;;;;;14.60;100.00;100781.75;675730;29;1273;-64
2023/08/14 00:33:43;;;;;;;6.00;2.78;;;;;;;14.61;100.00;100778.22;672429;29;4369;-65
2023/08/14 00:34:04;;;;;;;5.72;2.70;;;;;;;14.60;100.00;100778.25;675589;29;1401;-64
2023/08/14 00:34:28;;;;;;;5.97;2.50;;;;;;;14.58;100.00;100774.78;672904;29;1988;-65
2023/08/14 00:34:51;;;;;;;5.60;2.50;;;;;;;14.57;100.00;100780.97;676476;29;1577;-65
2023/08/14 00:35:12;;;;;;;6.60;2.42;;;;;;;14.58;100.00;100772.16;676930;29;1320;-64
2023/08/14 00:35:38;;;;;;;7.93;2.55;;;;;;;14.56;100.00;100777.44;677069;29;1417;-64
2023/08/14 00:35:59;;;;;;;5.53;2.55;;;;;;;14.55;100.00;100777.47;678443;29;882;-64
2023/08/14 00:36:20;;;;;;;5.03;2.40;;;;;;;14.54;100.00;100778.38;680825;29;822;-64
2023/08/14 00:36:44;;;;;;;5.50;2.30;;;;;;;14.53;100.00;100774.03;679989;28;4664;-65
2023/08/14 00:37:06;;;;;;;5.50;2.13;;;;;;;14.52;100.00;100773.13;680243;29;938;-65
2023/08/14 00:38:02;;;;;;;5.47;2.40;;;;;;;14.54;100.00;100775.75;680265;29;814;-64
2023/08/14 00:38:22;;;;;;;4.82;2.45;;;;;;;14.56;100.00;100773.97;680610;29;1325;-65
2023/08/14 00:38:43;;;;;;;5.32;2.35;;;;;;;14.56;100.00;100772.19;678455;28;5751;-65
2023/08/14 00:39:07;;;;;;;5.18;2.42;;;;;;;14.57;100.00;100776.56;681088;28;838;-64
2023/08/14 00:39:28;;;;;;;4.30;2.40;;;;;;;14.57;100.00;100776.56;676873;29;1082;-65
2023/08/14 00:39:48;;;;;;;5.27;2.33;;;;;;;14.54;100.00;100776.63;673666;29;4440;-64
2023/08/14 00:40:10;;;;;;;5.78;2.40;;;;;;;14.56;100.00;100774.81;675282;29;919;-64
2023/08/14 00:40:30;;;;;;;4.95;2.40;;;;;;;14.57;100.00;100770.44;675884;29;1599;-64
2023/08/14 00:40:52;;;;;;;6.77;2.40;;;;;;;14.58;100.00;100767.78;671199;29;1178;-65
2023/08/14 00:41:13;;;;;;;5.45;2.40;;;;;;;14.61;100.00;100778.22;674438;29;886;-64
2023/08/14 00:41:37;;;;;;;5.23;2.53;;;;;;;14.62;100.00;100773.81;674273;29;1046;-64
2023/08/14 00:41:57;;;;;;;7.65;2.60;;;;;;;14.60;100.00;100773.84;673404;29;1497;-64
2023/08/14 00:42:17;;;;;;;6.70;2.53;;;;;;;14.59;100.00;100779.16;675015;29;1143;-64
2023/08/14 00:42:39;;;;;;;5.40;2.73;;;;;;;14.58;100.00;100774.78;674995;29;1164;-65
2023/08/14 00:42:59;;;;;;;5.97;3.13;;;;;;;14.57;100.00;100776.56;678240;29;4600;-64
2023/08/14 00:43:21;;;;;;;5.07;2.40;;;;;;;14.58;100.00;100778.31;676833;29;1260;-65
2023/08/14 00:43:41;;;;;;;4.35;2.40;;;;;;;14.58;100.00;100777.41;675744;29;1109;-64
2023/08/14 00:44:02;;;;;;;5.57;2.50;;;;;;;14.58;100.00;100774.78;675845;29;772;-64
2023/08/14 00:44:22;;;;;;;7.17;2.60;;;;;;;14.57;100.00;100781.81;677532;29;873;-64
2023/08/14 00:44:42;;;;;;;8.00;2.47;;;;;;;14.56;100.00;100780.06;677745;29;1616;-64
2023/08/14 00:45:03;;;;;;;5.97;2.80;;;;;;;14.59;100.00;100773.88;679013;29;929;-64
2023/08/14 00:45:23;;;;;;;5.55;2.50;;;;;;;14.60;100.00;100779.13;678462;29;846;-65
2023/08/14 00:45:44;;;;;;;5.10;2.40;;;;;;;14.60;100.00;100778.25;678107;28;4735;-65
2023/08/14 00:46:06;;;;;;;6.75;2.55;;;;;;;14.59;100.00;100782.66;681071;28;1282;-65
2023/08/14 00:46:26;;;;;;;5.88;2.60;;;;;;;14.60;100.00;100778.25;682050;29;1576;-64
2023/08/14 00:46:47;;;;;;;5.03;2.37;;;;;;;14.60;100.00;100773.84;682806;28;1120;-64
2023/08/14 00:47:08;;;;;;;8.35;2.65;;;;;;;14.60;100.00;100783.53;676883;29;1310;-64
2023/08/14 00:47:33;;;;;;;8.85;2.70;;;;;;;14.58;100.00;100780.03;677475;29;913;-64
2023/08/14 00:47:54;;;;;;;6.35;2.47;;;;;;;14.57;100.00;100781.81;675965;29;1253;-65
2023/08/14 00:48:14;;;;;;;5.57;2.60;;;;;;;14.57;100.00;100776.56;674001;29;1265;-65
2023/08/14 00:48:35;;;;;;;6.05;2.53;;;;;;;14.56;100.00;100782.72;673530;29;1204;-65
2023/08/14 00:48:56;;;;;;;8.30;2.60;;;;;;;14.59;100.00;100779.16;674889;29;4517;-65
2023/08/14 00:49:17;;;;;;;6.63;2.70;;;;;;;14.59;100.00;100777.41;674456;29;893;-65
2023/08/14 00:49:41;;;;;;;5.18;2.60;;;;;;;14.60;100.00;100781.75;672096;29;1236;-64
2023/08/14 00:50:07;;;;;;;7.25;2.70;;;;;;;14.64;100.00;100779.97;673701;29;834;-64
2023/08/14 00:50:28;;;;;;;6.38;2.63;;;;;;;14.64;100.00;100778.19;673539;29;1436;-65
2023/08/14 00:50:48;;;;;;;5.87;2.57;;;;;;;14.67;100.00;100782.53;672767;29;1197;-64
2023/08/14 00:51:09;;;;;;;6.93;2.73;;;;;;;14.66;100.00;100774.69;673457;29;1633;-64
2023/08/14 00:51:30;;;;;;;6.10;2.50;;;;;;;14.64;100.00;100778.19;677486;29;1218;-64
2023/08/14 00:51:50;;;;;;;6.07;2.50;;;;;;;14.63;100.00;100776.47;678336;29;4474;-64
2023/08/14 00:52:11;;;;;;;5.73;2.33;;;;;;;14.64;100.00;100782.59;678564;29;849;-65
2023/08/14 00:52:35;;;;;;;6.88;2.50;;;;;;;14.63;100.00;100784.38;678709;29;854;-65
2023/08/14 00:52:59;;;;;;;5.30;2.65;;;;;;;14.65;100.00;100781.72;677915;29;822;-64
2023/08/14 00:53:20;;;;;;;5.82;2.72;;;;;;;14.66;100.00;100779.94;680913;29;878;-64
2023/08/14 00:53:41;;;;;;;5.05;2.42;;;;;;;14.64;100.00;100778.19;680698;28;1118;-64
2023/08/14 00:54:01;;;;;;;5.35;2.70;;;;;;;14.66;100.00;100772.03;680057;29;1249;-64
2023/08/14 00:54:22;;;;;;;6.03;2.67;;;;;;;14.67;100.00;100771.16;678644;29;1253;-65
2023/08/14 00:54:42;;;;;;;5.47;2.67;;;;;;;14.67;100.00;100771.16;674796;29;4468;-64
2023/08/14 00:55:08;;;;;;;5.00;2.50;;;;;;;14.67;100.00;100773.78;676048;29;812;-65
2023/08/14 00:55:28;;;;;;;5.47;2.72;;;;;;;14.63;100.00;100773.84;673047;29;1622;-65
2023/08/14 00:55:49;;;;;;;5.47;2.73;;;;;;;14.63;100.00;100776.47;672487;29;1190;-64
2023/08/14 00:56:09;;;;;;;6.97;2.43;;;;;;;14.61;100.00;100775.59;673405;29;873;-65
2023/08/14 00:56:31;;;;;;;6.63;2.47;;;;;;;14.60;100.00;100776.50;678014;29;1279;-65
2023/08/14 00:56:51;;;;;;;5.82;2.30;;;;;;;14.59;100.00;100777.41;678969;29;932;-65
2023/08/14 00:57:12;;;;;;;6.93;2.80;;;;;;;14.60;100.00;100776.50;680000;29;854;-65
2023/08/14 00:57:33;;;;;;;6.68;2.60;;;;;;;14.60;100.00;100776.50;681672;29;917;-65
2023/08/14 00:57:54;;;;;;;6.35;2.63;;;;;;;14.62;100.00;100772.13;677889;29;4590;-64
2023/08/14 00:58:17;;;;;;;5.28;2.50;;;;;;;14.64;100.00;100778.19;678672;29;1337;-65
2023/08/14 00:58:38;;;;;;;5.50;2.33;;;;;;;14.64;100.00;100777.34;674368;29;1454;-65
2023/08/14 00:58:58;;;;;;;5.40;2.70;;;;;;;14.62;100.00;100774.75;678445;29;974;-64
2023/08/14 00:59:19;;;;;;;4.68;2.38;;;;;;;14.62;100.00;100780.00;679288;29;823;-64
2023/08/14 00:59:39;;;;;;;5.90;2.50;;;;;;;14.62;100.00;100774.75;678686;28;989;-64
2023/08/14 01:00:07;;;;;;;5.97;2.60;;;;;;;14.62;100.00;100772.13;679212;29;1907;-65
2023/08/14 01:00:28;;;;;;;5.10;2.40;;;;;;;14.61;100.00;100775.59;678582;29;1853;-65
2023/08/14 01:00:49;;;;;;;6.00;2.80;;;;;;;14.60;100.00;100776.50;676138;29;4699;-64
2023/08/14 01:01:10;;;;;;;7.30;2.75;;;;;;;14.60;100.00;100773.00;674713;29;1269;-64
2023/08/14 01:01:31;;;;;;;7.60;3.10;;;;;;;14.59;100.00;100774.78;672352;29;1079;-65
2023/08/14 01:01:51;;;;;;;5.37;2.90;;;;;;;14.59;100.00;100779.16;671710;29;1018;-64
2023/08/14 01:02:13;;;;;;;5.28;2.80;;;;;;;14.59;100.00;100780.03;672617;29;1482;-65
2023/08/14 01:02:34;;;;;;;6.05;2.60;;;;;;;14.60;100.00;100770.38;673545;29;919;-65
2023/08/14 01:02:55;;;;;;;6.78;2.70;;;;;;;14.59;100.00;100772.16;671189;29;1171;-65
2023/08/14 01:03:21;;;;;;;6.40;2.60;;;;;;;14.60;100.00;100773.84;674487;29;906;-64
2023/08/14 01:03:44;;;;;;;5.90;2.33;;;;;;;14.63;100.00;100770.34;673868;29;4416;-64
2023/08/14 01:04:05;;;;;;;4.60;2.30;;;;;;;14.62;100.00;100768.56;676593;29;810;-64
2023/08/14 01:04:25;;;;;;;7.10;2.70;;;;;;;14.58;100.00;100767.78;676682;29;1168;-65
2023/08/14 01:04:46;;;;;;;8.23;2.47;;;;;;;14.59;100.00;100771.25;675863;29;1026;-65
2023/08/14 01:05:10;;;;;;;8.15;2.58;;;;;;;14.59;100.00;100772.16;679922;29;1013;-65
2023/08/14 01:05:30;;;;;;;4.65;2.50;;;;;;;14.57;100.00;100771.28;681463;29;866;-64
2023/08/14 01:05:51;;;;;;;5.00;2.43;;;;;;;14.58;100.00;100769.53;681487;28;1477;-65
2023/08/14 01:06:11;;;;;;;5.32;2.78;;;;;;;14.55;100.00;100773.09;679431;29;885;-65
2023/08/14 01:06:32;;;;;;;6.33;2.60;;;;;;;14.53;100.00;100768.75;677690;29;885;-64
2023/08/14 01:06:52;;;;;;;5.50;2.53;;;;;;;14.54;100.00;100771.38;678940;28;4481;-65
2023/08/14 01:07:13;;;;;;;6.30;2.77;;;;;;;14.54;100.00;100771.38;678602;29;944;-65
2023/08/14 01:07:33;;;;;;;6.45;2.80;;;;;;;14.54;100.00;100774.00;675757;29;1166;-65
2023/08/14 01:07:56;;;;;;;5.73;2.70;;;;;;;14.54;100.00;100768.72;675968;29;1336;-65
2023/08/14 01:08:17;;;;;;;5.18;2.63;;;;;;;14.52;100.00;100778.41;676249;29;946;-64
2023/08/14 01:08:38;;;;;;;4.07;2.40;;;;;;;14.51;100.00;100770.53;675100;29;1276;-64
2023/08/14 01:09:01;;;;;;;4.63;2.55;;;;;;;14.50;100.00;100774.09;675662;29;1195;-65
2023/08/14 01:09:22;;;;;;;5.68;2.83;;;;;;;14.50;100.00;100768.84;677636;29;794;-64
2023/08/14 01:09:43;;;;;;;7.00;2.80;;;;;;;14.50;100.00;100774.94;674873;29;4645;-64
2023/08/14 01:10:04;;;;;;;5.47;2.40;;;;;;;14.54;100.00;100767.84;675071;29;1249;-65
2023/08/14 01:10:40;;;;;;;4.82;2.40;;;;;;;14.52;100.00;100773.13;676263;29;906;-64
2023/08/14 01:11:23;;;;;;;6.82;2.50;;;;;;;14.50;100.00;100771.47;678723;29;1373;-65
2023/08/14 01:11:58;;;;;;;4.90;2.45;;;;;;;14.50;100.00;100768.84;678392;29;1123;-65
2023/08/14 01:12:30;;;;;;;6.20;2.20;;;;;;;14.52;100.00;100772.28;678496;29;810;-64
2023/08/14 01:13:08;;;;;;;7.57;2.50;;;;;;;14.52;100.00;100772.28;677706;28;4319;-64
2023/08/14 01:13:35;;;;;;;7.68;2.50;;;;;;;14.50;100.00;100769.69;677350;29;1423;-64
2023/08/14 01:14:11;;;;;;;6.25;2.55;;;;;;;14.46;100.00;100774.13;677199;29;1139;-65
2023/08/14 01:14:33;;;;;;;6.03;2.47;;;;;;;14.45;100.00;100782.06;675480;29;1479;-65
2023/08/14 01:15:03;;;;;;;5.20;2.40;;;;;;;14.44;100.00;100768.03;679142;29;1268;-65
2023/08/14 01:15:50;;;;;;;9.02;3.00;;;;;;;14.44;100.00;100775.03;678311;29;1160;-65
2023/08/14 01:16:17;;;;;;;6.63;2.55;;;;;;;14.45;100.00;100771.53;677649;29;4835;-64
2023/08/14 01:16:43;;;;;;;6.70;2.53;;;;;;;14.46;100.00;100766.25;678352;29;1103;-65
2023/08/14 01:17:08;;;;;;;6.32;2.72;;;;;;;14.50;100.00;100774.09;678980;29;2183;-65
2023/08/14 01:17:35;;;;;;;6.70;2.60;;;;;;;14.50;100.00;100767.06;678808;29;1485;-64
2023/08/14 01:18:01;;;;;;;7.85;2.47;;;;;;;14.50;100.00;100768.84;675738;29;892;-65
2023/08/14 01:18:24;;;;;;;5.30;2.85;;;;;;;14.49;100.00;100767.94;676601;29;886;-65
2023/08/14 01:18:46;;;;;;;5.25;2.88;;;;;;;14.51;100.00;100771.44;674752;29;4665;-65
2023/08/14 01:19:14;;;;;;;6.90;2.70;;;;;;;14.51;100.00;100767.91;676802;29;889;-65
2023/08/14 01:19:39;;;;;;;7.13;2.40;;;;;;;14.51;100.00;100766.16;674439;29;958;-65
2023/08/14 01:20:01;;;;;;;6.03;3.00;;;;;;;14.47;100.00;100765.34;678771;29;1919;-64
2023/08/14 01:20:25;;;;;;;5.18;2.38;;;;;;;14.47;100.00;100772.38;678752;29;1082;-65
2023/08/14 01:21:17;;;;;;;7.25;2.65;;;;;;;14.49;100.00;100767.94;676308;29;1265;-65
2023/08/14 01:21:53;;;;;;;6.38;2.53;;;;;;;14.47;100.00;100769.75;678038;29;1442;-65
2023/08/14 01:22:58;;;;;;;6.25;2.50;;;;;;;14.44;100.00;100778.56;678695;29;5332;-65
2023/08/14 01:23:35;;;;;;;5.85;2.78;;;;;;;14.40;100.00;100768.13;678556;29;1193;-64
2023/08/14 01:24:16;;;;;;;5.38;2.45;;;;;;;14.44;100.00;100769.78;679678;29;1305;-65
2023/08/14 01:24:55;;;;;;;5.60;2.35;;;;;;;14.41;100.00;100767.22;678128;28;4464;-64
2023/08/14 01:25:29;;;;;;;5.63;2.72;;;;;;;14.38;100.00;100769.91;678696;29;1402;-65
2023/08/14 01:25:51;;;;;;;5.70;2.55;;;;;;;14.35;100.00;100776.09;677487;29;1083;-65
2023/08/14 01:26:12;;;;;;;5.03;2.35;;;;;;;14.36;100.00;100769.06;679089;29;806;-65
2023/08/14 01:26:34;;;;;;;5.38;2.80;;;;;;;14.34;100.00;100769.09;677534;29;1153;-65
2023/08/14 01:26:54;;;;;;;5.20;2.45;;;;;;;14.34;100.00;100773.50;678570;29;889;-65
2023/08/14 01:27:16;;;;;;;4.50;2.43;;;;;;;14.35;100.00;100770.84;676117;29;1272;-65
2023/08/14 01:27:36;;;;;;;5.35;2.40;;;;;;;14.33;100.00;100767.38;674774;29;1248;-65
2023/08/14 01:27:58;;;;;;;5.27;2.50;;;;;;;14.31;100.00;100775.28;674267;29;4415;-65
2023/08/14 01:28:18;;;;;;;5.15;2.58;;;;;;;14.33;100.00;100771.75;674420;29;1220;-65
2023/08/14 01:28:39;;;;;;;7.10;2.70;;;;;;;14.31;100.00;100769.16;673228;29;1334;-65
2023/08/14 01:29:01;;;;;;;6.40;2.60;;;;;;;14.33;100.00;100771.75;671357;29;1246;-65
2023/08/14 01:29:21;;;;;;;6.28;2.50;;;;;;;14.31;100.00;100770.00;671458;29;1506;-65
2023/08/14 01:29:42;;;;;;;5.20;2.40;;;;;;;14.27;100.00;100764.84;670124;29;1171;-65
2023/08/14 01:30:03;;;;;;;5.13;2.60;;;;;;;14.27;100.00;100773.63;671544;29;1222;-65
2023/08/14 01:30:24;;;;;;;5.53;2.70;;;;;;;14.27;100.00;100768.38;673235;29;1624;-64
2023/08/14 01:30:44;;;;;;;4.93;2.50;;;;;;;14.25;100.00;100770.16;672380;29;4471;-64
2023/08/14 01:31:05;;;;;;;5.88;2.58;;;;;;;14.23;100.00;100771.94;674728;29;878;-65
2023/08/14 01:31:25;;;;;;;6.17;2.60;;;;;;;14.22;100.00;100771.94;674602;29;954;-65
2023/08/14 01:31:46;;;;;;;5.93;2.53;;;;;;;14.23;100.00;100771.94;673069;29;1441;-65
2023/08/14 01:32:06;;;;;;;5.70;2.60;;;;;;;14.26;100.00;100763.09;676727;29;1242;-65
2023/08/14 01:32:27;;;;;;;5.85;2.60;;;;;;;14.25;100.00;100762.25;676141;29;1473;-65
2023/08/14 01:32:47;;;;;;;5.50;2.40;;;;;;;14.23;100.00;100764.06;675940;29;1444;-64
2023/08/14 01:33:08;;;;;;;6.78;2.40;;;;;;;14.22;100.00;100759.69;674213;29;968;-65
2023/08/14 01:33:29;;;;;;;6.30;2.50;;;;;;;14.26;100.00;100761.38;676296;29;2150;-65
2023/08/14 01:33:49;;;;;;;5.10;2.70;;;;;;;14.30;100.00;100764.78;677640;29;4384;-64
2023/08/14 01:34:12;;;;;;;5.60;2.50;;;;;;;14.30;100.00;100760.41;679213;29;1685;-65
2023/08/14 01:34:32;;;;;;;5.30;2.63;;;;;;;14.25;100.00;100762.25;678749;29;878;-65
2023/08/14 01:34:55;;;;;;;6.20;2.70;;;;;;;14.23;100.00;100756.19;677468;29;865;-64
2023/08/14 01:35:17;;;;;;;5.80;2.50;;;;;;;14.22;100.00;100759.69;678736;29;815;-64
2023/08/14 01:35:42;;;;;;;6.57;2.50;;;;;;;14.23;100.00;100763.19;676852;29;1071;-65
2023/08/14 01:36:15;;;;;;;6.57;2.67;;;;;;;14.22;100.00;100757.06;679044;29;2217;-65
2023/08/14 01:36:54;;;;;;;6.93;2.70;;;;;;;14.17;100.00;100751.00;678338;29;881;-65
2023/08/14 01:37:52;;;;;;;5.57;2.40;;;;;;;14.15;100.00;100752.81;678927;29;4772;-65
2023/08/14 01:38:25;;;;;;;6.40;2.50;;;;;;;14.18;100.00;100752.75;679509;29;916;-65
2023/08/14 01:39:20;;;;;;;4.65;2.20;;;;;;;14.16;100.00;100753.66;677008;29;5309;-65
2023/08/14 01:39:47;;;;;;;6.43;2.70;;;;;;;14.15;100.00;100750.19;679702;28;4879;-65
2023/08/14 01:40:16;;;;;;;5.85;2.65;;;;;;;14.12;100.00;100756.38;679602;29;2191;-65
2023/08/14 01:40:48;;;;;;;7.55;2.83;;;;;;;14.13;100.00;100751.97;681537;29;1369;-64
2023/08/14 01:41:20;;;;;;;6.18;2.60;;;;;;;14.12;100.00;100753.75;677263;29;870;-65
2023/08/14 01:41:50;;;;;;;5.68;3.00;;;;;;;14.13;100.00;100751.97;676381;29;1074;-65
2023/08/14 01:42:20;;;;;;;6.93;2.63;;;;;;;14.08;100.00;100753.78;674970;29;929;-65
2023/08/14 01:42:48;;;;;;;5.13;2.33;;;;;;;14.07;100.00;100749.47;673251;29;4411;-65
2023/08/14 01:43:14;;;;;;;4.90;2.40;;;;;;;14.05;100.00;100743.34;679620;29;925;-65
2023/08/14 01:43:47;;;;;;;5.57;2.53;;;;;;;14.04;100.00;100744.22;675206;29;940;-64
2023/08/14 01:44:09;;;;;;;7.00;3.13;;;;;;;14.03;100.00;100742.53;677071;29;2182;-65
2023/08/14 01:44:31;;;;;;;6.82;2.90;;;;;;;14.03;100.00;100742.53;679126;29;1154;-65
2023/08/14 01:44:59;;;;;;;4.90;2.45;;;;;;;14.05;100.00;100745.97;677983;29;1175;-65
2023/08/14 01:45:22;;;;;;;7.70;2.70;;;;;;;14.09;100.00;100743.25;679065;29;798;-65
2023/08/14 01:45:42;;;;;;;8.35;2.63;;;;;;;14.10;100.00;100739.72;679882;28;4354;-65
2023/08/14 01:46:07;;;;;;;7.45;2.75;;;;;;;14.09;100.00;100734.50;678108;29;1360;-65
2023/08/14 01:46:32;;;;;;;6.03;2.63;;;;;;;14.09;100.00;100737.13;677862;29;894;-65
2023/08/14 01:46:57;;;;;;;5.13;2.50;;;;;;;14.11;100.00;100745.88;678752;29;980;-65
2023/08/14 01:47:18;;;;;;;5.43;2.47;;;;;;;14.09;100.00;100739.75;678317;29;945;-65
2023/08/14 01:47:41;;;;;;;5.57;2.50;;;;;;;14.07;100.00;100736.31;677836;29;1265;-65
2023/08/14 01:48:03;;;;;;;5.68;2.30;;;;;;;14.07;100.00;100741.56;680415;29;873;-65
2023/08/14 01:48:25;;;;;;;4.90;2.53;;;;;;;14.06;100.00;100737.19;677996;29;952;-65
2023/08/14 01:48:46;;;;;;;4.53;2.55;;;;;;;14.02;100.00;100736.38;676034;29;4629;-65
2023/08/14 01:49:07;;;;;;;5.72;2.45;;;;;;;14.03;100.00;100738.13;676547;29;913;-65
2023/08/14 01:49:30;;;;;;;7.93;2.80;;;;;;;14.04;100.00;100736.34;677818;29;1362;-65
2023/08/14 01:49:52;;;;;;;6.28;2.80;;;;;;;14.03;100.00;100742.53;674894;29;2412;-65
2023/08/14 01:50:14;;;;;;;4.47;2.58;;;;;;;14.01;100.00;100733.78;675098;29;1407;-65
2023/08/14 01:50:36;;;;;;;5.57;2.47;;;;;;;14.04;100.00;100733.72;676575;29;874;-65
2023/08/14 01:50:57;;;;;;;4.53;2.47;;;;;;;14.07;100.00;100734.53;675505;29;920;-64
2023/08/14 01:51:19;;;;;;;6.20;2.50;;;;;;;14.10;100.00;100734.47;676756;29;1245;-65
2023/08/14 01:51:40;;;;;;;5.10;2.40;;;;;;;14.10;100.00;100729.22;673420;29;4529;-65
2023/08/14 01:52:02;;;;;;;6.97;2.60;;;;;;;14.07;100.00;100737.16;675771;29;882;-65
2023/08/14 01:52:23;;;;;;;6.90;2.67;;;;;;;14.02;100.00;100730.25;676296;29;812;-65
2023/08/14 01:52:44;;;;;;;7.47;2.88;;;;;;;13.99;100.00;100730.31;675963;29;1034;-66
2023/08/14 01:53:04;;;;;;;7.27;2.70;;;;;;;13.94;100.00;100727.75;678123;29;1258;-64
2023/08/14 01:53:25;;;;;;;7.45;2.65;;;;;;;13.91;100.00;100723.41;680962;29;818;-65